Time;durP1;ratioP1;P1;durP2;ratioP2;P2;SDS_P1;SDS_P2;PMS_P1;PMS_P2;Temp;Humidity;BMP_temperature;BMP_pressure;BME280_temperature;BME280_humidity;BME280_pressure;Samples;Min_cycle;Max_cycle;Signal;HPM_P1;HPM_P2
2023/11/24 00:02:14;;;;;;;4.53;2.60;;;24.20;99.90;;;;;;5032774;28;20049;-49
2023/11/24 00:04:40;;;;;;;4.85;2.65;;;24.20;99.90;;;;;;5032609;28;20266;-49
2023/11/24 00:07:06;;;;;;;4.07;2.30;;;24.20;99.90;;;;;;5032492;28;20466;-49
2023/11/24 00:09:32;;;;;;;5.35;2.90;;;24.20;99.90;;;;;;5032533;28;20025;-50
2023/11/24 00:11:58;;;;;;;3.95;2.70;;;24.10;99.90;;;;;;5014838;28;20541;-50
2023/11/24 00:14:24;;;;;;;4.90;2.80;;;24.10;99.90;;;;;;5032678;28;20552;-49
2023/11/24 00:16:50;;;;;;;3.10;2.47;;;24.10;99.90;;;;;;5015058;28;20025;-49
2023/11/24 00:19:16;;;;;;;3.40;2.38;;;24.10;99.90;;;;;;5014914;28;20410;-49
2023/11/24 00:21:42;;;;;;;4.68;2.60;;;24.00;99.90;;;;;;5032679;28;20068;-49
2023/11/24 00:24:08;;;;;;;4.40;2.90;;;24.00;99.90;;;;;;5032553;28;20021;-49
2023/11/24 00:26:34;;;;;;;4.50;3.05;;;24.00;99.90;;;;;;5032401;28;20060;-49
2023/11/24 00:29:00;;;;;;;4.38;3.22;;;24.00;99.90;;;;;;5032570;28;20025;-50
2023/11/24 00:31:26;;;;;;;3.50;2.80;;;24.00;99.90;;;;;;5014661;28;20029;-49
2023/11/24 00:33:53;;;;;;;6.78;3.08;;;24.00;99.90;;;;;;5032371;28;20032;-49
2023/11/24 00:36:20;;;;;;;5.53;3.53;;;24.00;99.90;;;;;;5014685;28;20048;-50
2023/11/24 00:38:49;;;;;;;;;;;24.00;99.90;;;;;;5032887;28;20100;-48
2023/11/24 00:41:16;;;;;;;4.80;3.53;;;24.00;99.90;;;;;;5030378;28;19963;-48
2023/11/24 00:43:42;;;;;;;3.97;3.28;;;24.00;99.90;;;;;;5032012;28;20022;-48
2023/11/24 00:46:11;;;;;;;5.30;3.65;;;23.90;99.90;;;;;;5031935;28;20021;-48
2023/11/24 00:48:40;;;;;;;5.47;3.78;;;23.90;99.90;;;;;;5031083;28;20040;-49
2023/11/24 00:51:07;;;;;;;5.07;3.53;;;23.90;99.90;;;;;;5031558;28;20021;-49
2023/11/24 00:53:33;;;;;;;4.80;3.50;;;23.90;99.90;;;;;;5031941;28;20100;-48
2023/11/24 00:55:59;;;;;;;7.85;4.15;;;23.90;99.90;;;;;;5031308;28;20147;-49
2023/11/24 00:58:26;;;;;;;5.28;3.92;;;23.90;99.90;;;;;;5031477;28;20493;-49
2023/11/24 01:00:53;;;;;;;5.65;3.97;;;23.90;99.90;;;;;;5031189;28;20025;-48
2023/11/24 01:03:22;;;;;;;;;;;23.80;99.90;;;;;;5032371;28;20359;-49
2023/11/24 01:05:49;;;;;;;6.55;3.85;;;23.80;99.90;;;;;;5032292;28;19909;-49
2023/11/24 01:08:16;;;;;;;6.65;3.75;;;23.80;99.90;;;;;;5032085;28;20065;-49
2023/11/24 01:10:42;;;;;;;;;;;23.80;99.90;;;;;;5031690;28;20017;-49
2023/11/24 01:13:08;;;;;;;5.68;4.10;;;23.80;99.90;;;;;;5032183;28;20310;-48
2023/11/24 01:15:34;;;;;;;5.90;4.22;;;23.70;99.90;;;;;;5032011;28;20017;-48
2023/11/24 01:18:00;;;;;;;7.47;4.70;;;23.70;99.90;;;;;;5031994;28;20368;-48
2023/11/24 01:20:26;;;;;;;5.90;4.22;;;23.70;99.90;;;;;;5031736;28;20059;-49
2023/11/24 01:22:52;;;;;;;6.45;3.83;;;23.70;99.90;;;;;;5014015;28;20108;-49
2023/11/24 01:25:18;;;;;;;8.55;5.15;;;23.70;99.90;;;;;;5032161;28;20549;-48
2023/11/24 01:27:44;;;;;;;8.02;5.15;;;23.70;99.90;;;;;;5031657;28;20042;-49
2023/11/24 01:30:10;;;;;;;6.93;4.35;;;23.70;99.90;;;;;;5031852;28;20101;-49
2023/11/24 01:32:36;;;;;;;5.57;4.43;;;23.70;99.90;;;;;;5032009;28;20025;-48
2023/11/24 01:35:04;;;;;;;6.80;4.93;;;23.70;99.90;;;;;;5031824;28;20116;-48
2023/11/24 01:37:29;;;;;;;6.80;4.95;;;23.60;99.90;;;;;;5031635;28;20017;-48
2023/11/24 01:39:55;;;;;;;6.22;4.70;;;23.60;99.90;;;;;;5031555;28;20037;-48
2023/11/24 01:42:22;;;;;;;7.85;5.18;;;23.60;99.90;;;;;;5031881;28;20367;-48
2023/11/24 01:44:48;;;;;;;7.05;5.00;;;23.60;99.90;;;;;;5032007;28;20037;-48
2023/11/24 01:47:14;;;;;;;8.95;5.57;;;23.60;99.90;;;;;;5031544;28;20034;-48
2023/11/24 01:49:40;;;;;;;6.90;5.40;;;23.60;99.90;;;;;;5031593;28;20025;-48
2023/11/24 01:52:06;;;;;;;7.38;5.15;;;23.60;99.90;;;;;;5032065;28;20032;-48
2023/11/24 01:54:36;;;;;;;7.25;5.28;;;23.60;99.90;;;;;;5031644;28;20031;-48
2023/11/24 01:57:11;;;;;;;6.40;5.25;;;23.50;99.90;;;;;;5031641;28;20026;-48
2023/11/24 01:59:38;;;;;;;7.28;5.00;;;23.50;99.90;;;;;;5034034;28;20057;-49
2023/11/24 02:02:04;;;;;;;8.23;5.85;;;23.50;99.90;;;;;;5035553;28;20053;-49
2023/11/24 02:04:30;;;;;;;8.23;5.68;;;23.50;99.90;;;;;;5035059;28;20030;-49
2023/11/24 02:06:57;;;;;;;7.03;5.38;;;23.50;99.90;;;;;;5034974;28;20072;-49
2023/11/24 02:09:24;;;;;;;8.60;6.05;;;23.50;99.90;;;;;;5035296;28;20112;-49
2023/11/24 02:11:50;;;;;;;9.90;6.25;;;23.40;99.90;;;;;;5035172;28;20036;-49
2023/11/24 02:14:15;;;;;;;6.72;5.53;;;23.40;99.90;;;;;;5034900;28;20101;-49
2023/11/24 02:16:41;;;;;;;7.75;5.38;;;23.40;99.90;;;;;;5034718;28;20017;-49
2023/11/24 02:19:07;;;;;;;8.55;5.90;;;23.40;99.90;;;;;;5034611;28;20136;-49
2023/11/24 02:21:33;;;;;;;7.82;5.97;;;23.40;99.90;;;;;;5034841;28;20022;-49
2023/11/24 02:23:59;;;;;;;9.35;6.43;;;23.40;99.90;;;;;;5034884;28;20474;-49
2023/11/24 02:26:26;;;;;;;8.73;6.15;;;23.40;99.90;;;;;;5034823;28;20032;-49
2023/11/24 02:28:52;;;;;;;8.10;6.18;;;23.30;99.90;;;;;;5034831;28;20034;-49
2023/11/24 02:31:19;;;;;;;7.85;5.78;;;23.40;99.90;;;;;;5034586;28;20022;-49
2023/11/24 02:33:48;;;;;;;6.80;5.90;;;23.30;99.90;;;;;;5016766;28;20397;-49
2023/11/24 02:36:27;;;;;;;8.30;6.15;;;23.30;99.90;;;;;;5034536;28;20147;-49
2023/11/24 02:38:59;;;;;;;8.35;5.32;;;23.30;99.90;;;;;;5034706;28;20440;-49
2023/11/24 02:41:25;;;;;;;8.00;6.15;;;23.30;99.90;;;;;;5035029;28;20359;-50
2023/11/24 02:43:51;;;;;;;7.75;5.95;;;23.30;99.90;;;;;;5034699;28;20036;-49
2023/11/24 02:46:17;;;;;;;7.88;5.80;;;23.30;99.90;;;;;;5034175;28;20045;-49
2023/11/24 02:48:44;;;;;;;8.05;6.25;;;23.30;99.90;;;;;;5034245;28;20036;-49
2023/11/24 02:51:10;;;;;;;9.20;6.07;;;23.30;99.90;;;;;;5034189;28;20033;-49
2023/11/24 02:53:39;;;;;;;9.63;6.40;;;23.20;99.90;;;;;;5034251;28;20095;-49
2023/11/24 02:56:06;;;;;;;7.78;5.68;;;23.20;99.90;;;;;;5033938;28;20037;-49
2023/11/24 02:58:32;;;;;;;9.40;6.30;;;23.20;99.90;;;;;;5033995;28;20092;-49
2023/11/24 03:00:59;;;;;;;7.72;5.63;;;23.20;99.90;;;;;;5034583;28;20071;-48
2023/11/24 03:03:27;;;;;;;8.45;6.47;;;23.10;99.90;;;;;;5034030;28;20049;-49
2023/11/24 03:05:52;;;;;;;7.68;5.60;;;23.20;99.90;;;;;;5034205;28;20020;-49
2023/11/24 03:08:19;;;;;;;7.03;5.55;;;23.10;99.90;;;;;;5033863;28;20030;-48
2023/11/24 03:10:45;;;;;;;8.38;6.15;;;23.10;99.90;;;;;;5015354;28;20377;-48
2023/11/24 03:13:11;;;;;;;10.15;6.45;;;23.10;99.90;;;;;;5033825;28;20030;-48
2023/11/24 03:15:37;;;;;;;6.90;5.45;;;23.10;99.90;;;;;;5033847;28;20022;-48
2023/11/24 03:18:03;;;;;;;8.27;5.85;;;23.10;99.90;;;;;;5033772;28;20064;-48
2023/11/24 03:20:29;;;;;;;8.48;5.95;;;23.10;99.90;;;;;;5033782;28;20477;-48
2023/11/24 03:22:55;;;;;;;7.80;5.57;;;23.10;99.90;;;;;;5033971;28;20069;-47
2023/11/24 03:25:21;;;;;;;7.18;5.38;;;23.10;99.90;;;;;;5033581;28;20056;-48
2023/11/24 03:27:48;;;;;;;8.98;6.53;;;23.00;99.90;;;;;;5033313;28;20485;-48
2023/11/24 03:30:14;;;;;;;8.70;6.18;;;23.10;99.90;;;;;;5015593;28;20021;-48
2023/11/24 03:32:40;;;;;;;7.57;5.53;;;23.00;99.90;;;;;;5033476;28;20033;-47
2023/11/24 03:35:07;;;;;;;9.63;5.90;;;23.00;99.90;;;;;;5033403;28;20026;-47
2023/11/24 03:37:33;;;;;;;7.38;5.57;;;23.00;99.90;;;;;;5033352;28;20033;-48
2023/11/24 03:39:59;;;;;;;8.40;6.05;;;23.00;99.90;;;;;;5033416;28;20033;-48
2023/11/24 03:42:25;;;;;;;10.48;5.88;;;23.00;99.90;;;;;;5015730;28;20513;-48
2023/11/24 03:44:50;;;;;;;7.82;5.80;;;23.00;99.90;;;;;;5033132;28;20079;-48
2023/11/24 03:47:17;;;;;;;7.07;5.15;;;23.00;99.90;;;;;;5032981;28;20481;-48
2023/11/24 03:49:43;;;;;;;8.35;6.22;;;23.00;99.90;;;;;;5033040;28;20048;-48
2023/11/24 03:52:09;;;;;;;7.85;6.10;;;23.00;99.90;;;;;;5033038;28;20104;-49
2023/11/24 03:54:35;;;;;;;9.20;5.82;;;22.90;99.90;;;;;;5033036;28;20056;-48
2023/11/24 03:57:00;;;;;;;7.20;5.50;;;22.90;99.90;;;;;;5032927;28;20053;-48
2023/11/24 03:59:26;;;;;;;8.70;6.03;;;22.90;99.90;;;;;;5015621;28;20018;-48
2023/11/24 04:01:52;;;;;;;10.30;5.25;;;22.90;99.90;;;;;;5045424;22;20058;-46
2023/11/24 04:04:18;;;;;;;7.03;5.20;;;22.90;99.90;;;;;;5015172;28;20033;-44
2023/11/24 04:06:43;;;;;;;8.02;5.57;;;22.90;99.90;;;;;;5032838;28;20041;-45
2023/11/24 04:09:10;;;;;;;6.88;5.15;;;22.90;99.90;;;;;;5032795;28;20029;-44
2023/11/24 04:11:36;;;;;;;8.98;5.20;;;22.90;99.90;;;;;;5032699;28;20022;-44
2023/11/24 04:14:02;;;;;;;6.55;4.97;;;22.90;99.90;;;;;;5032619;28;20032;-45
2023/11/24 04:16:29;;;;;;;8.15;4.88;;;22.80;99.90;;;;;;5032867;28;20037;-45
2023/11/24 04:18:55;;;;;;;7.60;5.03;;;22.80;99.90;;;;;;5032706;28;20022;-44
2023/11/24 04:21:22;;;;;;;7.03;5.53;;;22.80;99.90;;;;;;5032496;28;20053;-45
2023/11/24 04:23:47;;;;;;;7.45;4.93;;;22.80;99.90;;;;;;5032484;28;20025;-44
2023/11/24 04:26:14;;;;;;;8.30;5.40;;;22.80;99.90;;;;;;5032215;28;20022;-45
2023/11/24 04:28:39;;;;;;;7.05;4.93;;;22.80;99.90;;;;;;5032486;28;20111;-45
2023/11/24 04:31:05;;;;;;;8.68;5.35;;;22.80;99.90;;;;;;5014591;28;20072;-45
2023/11/24 04:33:31;;;;;;;7.53;4.60;;;22.80;99.90;;;;;;5032423;28;20032;-45
2023/11/24 04:35:57;;;;;;;7.90;4.90;;;22.80;99.90;;;;;;5032470;28;20100;-45
2023/11/24 04:38:23;;;;;;;7.07;4.85;;;22.80;99.90;;;;;;5032309;28;20071;-45
2023/11/24 04:40:49;;;;;;;5.55;4.53;;;22.80;99.90;;;;;;5032277;28;20057;-44
2023/11/24 04:43:15;;;;;;;8.05;4.88;;;22.70;99.90;;;;;;5032310;28;20028;-45
2023/11/24 04:45:41;;;;;;;6.35;4.40;;;22.80;99.90;;;;;;5032213;28;20029;-45
2023/11/24 04:48:10;;;;;;;6.72;4.40;;;22.70;99.90;;;;;;5032087;28;20041;-44
2023/11/24 04:50:36;;;;;;;8.15;4.10;;;22.70;99.90;;;;;;5014556;28;20032;-45
2023/11/24 04:53:05;;;;;;;6.03;4.07;;;22.70;99.90;;;;;;5032267;28;20448;-45
2023/11/24 04:55:30;;;;;;;7.75;4.32;;;22.70;99.90;;;;;;5032232;28;20105;-43
2023/11/24 04:57:56;;;;;;;8.63;4.53;;;22.70;99.90;;;;;;5032032;28;20049;-44
2023/11/24 05:00:22;;;;;;;7.18;4.32;;;22.70;99.90;;;;;;5032323;28;20112;-44
2023/11/24 05:02:49;;;;;;;6.40;4.22;;;22.70;99.90;;;;;;5031974;28;20478;-44
2023/11/24 05:05:17;;;;;;;5.30;4.03;;;22.70;99.90;;;;;;5032130;28;20021;-44
2023/11/24 05:07:43;;;;;;;5.93;4.10;;;22.70;99.90;;;;;;5031853;28;20034;-44
2023/11/24 05:10:09;;;;;;;8.00;3.85;;;22.70;99.90;;;;;;5032031;28;20414;-44
2023/11/24 05:12:37;;;;;;;6.10;3.95;;;22.70;99.90;;;;;;5031958;28;20029;-45
2023/11/24 05:15:08;;;;;;;6.03;4.07;;;22.70;99.90;;;;;;5032022;28;20106;-44
2023/11/24 05:17:35;;;;;;;6.88;4.20;;;22.60;99.90;;;;;;5031931;28;20065;-44
2023/11/24 05:20:01;;;;;;;7.10;3.90;;;22.60;99.90;;;;;;5032038;28;20121;-44
2023/11/24 05:22:27;;;;;;;7.82;3.95;;;22.60;99.90;;;;;;5031811;28;20033;-44
2023/11/24 05:24:53;;;;;;;4.65;3.40;;;22.60;99.90;;;;;;4997789;28;20132;-44
2023/11/24 05:27:18;;;;;;;6.55;3.95;;;22.60;99.90;;;;;;5031599;28;20504;-44
2023/11/24 05:29:44;;;;;;;5.50;3.40;;;22.60;99.90;;;;;;5031866;28;20024;-43
2023/11/24 05:32:11;;;;;;;4.65;3.50;;;22.60;99.90;;;;;;5014095;28;20363;-44
2023/11/24 05:34:37;;;;;;;5.60;3.38;;;22.60;99.90;;;;;;5034377;28;20087;-44
2023/11/24 05:37:05;;;;;;;5.40;3.70;;;22.60;99.90;;;;;;5035791;28;20025;-44
2023/11/24 05:39:31;;;;;;;11.85;4.25;;;22.60;99.90;;;;;;5035671;28;20466;-44
2023/11/24 05:41:58;;;;;;;4.97;3.45;;;22.60;99.90;;;;;;5035567;28;20099;-45
2023/11/24 05:44:24;;;;;;;5.50;3.20;;;22.60;99.90;;;;;;5035532;28;20044;-44
2023/11/24 05:46:50;;;;;;;5.47;3.45;;;22.50;99.90;;;;;;5035286;28;20033;-44
2023/11/24 05:49:16;;;;;;;4.55;3.28;;;22.50;99.90;;;;;;5035418;28;20028;-44
2023/11/24 05:51:43;;;;;;;5.82;3.70;;;22.50;99.90;;;;;;5035210;28;20103;-44
2023/11/24 05:54:10;;;;;;;5.35;3.20;;;22.50;99.90;;;;;;5035256;28;20028;-44
2023/11/24 05:56:36;;;;;;;4.25;3.03;;;22.50;99.90;;;;;;5035198;28;20087;-44
2023/11/24 05:59:01;;;;;;;4.93;3.30;;;22.50;99.90;;;;;;5035338;28;20040;-44
2023/11/24 06:01:27;;;;;;;7.50;3.80;;;22.50;99.90;;;;;;5000378;28;20378;-44
2023/11/24 06:03:53;;;;;;;5.18;3.40;;;22.50;99.90;;;;;;5035003;28;20063;-44
2023/11/24 06:06:19;;;;;;;3.72;3.10;;;22.50;99.90;;;;;;5034933;28;20018;-46
2023/11/24 06:08:45;;;;;;;5.32;3.15;;;22.50;99.90;;;;;;5035107;28;20437;-45
2023/11/24 06:11:11;;;;;;;6.00;3.90;;;22.50;99.90;;;;;;5034108;28;20017;-45
2023/11/24 06:13:37;;;;;;;7.45;3.80;;;22.50;99.90;;;;;;5034992;28;20028;-45
2023/11/24 06:16:03;;;;;;;8.40;3.38;;;22.50;99.90;;;;;;5034984;28;20486;-45
2023/11/24 06:18:30;;;;;;;10.02;3.42;;;22.40;99.90;;;;;;5034801;28;20100;-45
2023/11/24 06:20:56;;;;;;;4.45;2.78;;;22.50;99.90;;;;;;5034790;28;20037;-45
2023/11/24 06:23:22;;;;;;;5.32;3.30;;;22.40;99.90;;;;;;5034787;28;20398;-44
2023/11/24 06:25:48;;;;;;;7.40;3.15;;;22.50;99.90;;;;;;5016954;28;20079;-44
2023/11/24 06:28:14;;;;;;;5.00;3.10;;;22.40;99.90;;;;;;5034434;28;20029;-44
2023/11/24 06:30:40;;;;;;;5.30;3.25;;;22.40;99.90;;;;;;5034526;28;20402;-44
2023/11/24 06:33:05;;;;;;;5.10;2.97;;;22.40;99.90;;;;;;5034812;28;20060;-44
2023/11/24 06:35:31;;;;;;;5.90;3.38;;;22.40;99.90;;;;;;5034406;28;20029;-44
2023/11/24 06:37:57;;;;;;;7.18;4.03;;;22.40;99.90;;;;;;5034528;28;20097;-45
2023/11/24 06:40:24;;;;;;;5.13;3.10;;;22.40;99.90;;;;;;5034387;28;20116;-46
2023/11/24 06:42:50;;;;;;;7.47;3.83;;;22.40;99.90;;;;;;5034447;28;20022;-45
2023/11/24 06:45:16;;;;;;;5.65;3.47;;;22.40;99.90;;;;;;5033108;28;20108;-45
2023/11/24 06:47:42;;;;;;;4.95;3.20;;;22.40;99.90;;;;;;5016549;28;20100;-45
2023/11/24 06:50:13;;;;;;;4.70;3.30;;;22.30;99.90;;;;;;5034357;28;20025;-45
2023/11/24 06:52:40;;;;;;;5.60;3.20;;;22.40;99.90;;;;;;5016359;28;20466;-45
2023/11/24 06:55:07;;;;;;;5.07;3.33;;;22.30;99.90;;;;;;5034329;28;20022;-45
2023/11/24 06:57:33;;;;;;;5.97;3.63;;;22.30;99.90;;;;;;5034187;28;20116;-44
2023/11/24 06:59:59;;;;;;;12.45;4.20;;;22.30;99.90;;;;;;5034035;28;20033;-46
2023/11/24 07:02:25;;;;;;;4.28;3.13;;;22.30;99.90;;;;;;5016291;28;20049;-45
2023/11/24 07:04:52;;;;;;;5.38;3.45;;;22.30;99.90;;;;;;5033907;28;20425;-45
2023/11/24 07:07:19;;;;;;;4.93;3.75;;;22.30;99.90;;;;;;5033871;28;20375;-45
2023/11/24 07:09:44;;;;;;;8.25;3.42;;;22.30;99.90;;;;;;5033850;28;20029;-45
2023/11/24 07:12:17;;;;;;;5.18;3.30;;;22.30;99.90;;;;;;5033765;28;20385;-46
2023/11/24 07:14:44;;;;;;;4.88;3.13;;;22.30;99.90;;;;;;5016040;28;20021;-46
2023/11/24 07:17:12;;;;;;;7.10;4.40;;;22.30;99.90;;;;;;5033832;28;20104;-47
2023/11/24 07:19:38;;;;;;;8.60;4.10;;;22.30;99.90;;;;;;5016105;28;20034;-46
2023/11/24 07:22:04;;;;;;;6.15;3.42;;;22.30;99.90;;;;;;5033629;28;20021;-46
2023/11/24 07:24:30;;;;;;;6.53;3.90;;;22.30;99.90;;;;;;5033654;28;20442;-46
2023/11/24 07:26:56;;;;;;;4.55;3.08;;;22.30;99.90;;;;;;5033415;28;20117;-45
2023/11/24 07:29:21;;;;;;;6.35;3.47;;;22.30;99.90;;;;;;5033450;28;20024;-45
2023/11/24 07:31:51;;;;;;;5.18;3.20;;;22.30;99.90;;;;;;5033386;28;20140;-46
2023/11/24 07:34:17;;;;;;;5.93;3.60;;;22.30;99.90;;;;;;5033462;28;20029;-46
2023/11/24 07:36:44;;;;;;;7.03;2.80;;;22.30;99.90;;;;;;5033342;28;20022;-46
2023/11/24 07:39:10;;;;;;;6.22;3.17;;;22.30;99.90;;;;;;5033539;28;20100;-46
2023/11/24 07:41:37;;;;;;;8.38;4.07;;;22.30;99.90;;;;;;5033437;28;20022;-45
2023/11/24 07:44:02;;;;;;;4.82;2.70;;;22.40;99.90;;;;;;5032984;28;20029;-45
2023/11/24 07:46:28;;;;;;;7.05;3.67;;;22.40;99.90;;;;;;5033085;28;20014;-45
2023/11/24 07:48:54;;;;;;;9.85;3.97;;;22.40;99.90;;;;;;5033086;28;20056;-44
2023/11/24 07:51:21;;;;;;;4.80;2.95;;;22.50;99.90;;;;;;5032973;28;20027;-45
2023/11/24 07:53:47;;;;;;;5.45;3.10;;;22.50;99.90;;;;;;5033084;28;20088;-45
2023/11/24 07:56:13;;;;;;;6.65;3.65;;;22.50;99.90;;;;;;5032457;28;20029;-45
2023/11/24 07:58:39;;;;;;;6.88;3.30;;;22.50;99.90;;;;;;5015446;28;20030;-45
2023/11/24 08:01:05;;;;;;;6.22;3.60;;;22.50;99.90;;;;;;5014908;28;20041;-45
2023/11/24 08:03:32;;;;;;;5.72;3.30;;;22.60;99.90;;;;;;5032920;28;20026;-45
2023/11/24 08:06:06;;;;;;;5.40;3.40;;;22.60;99.90;;;;;;5032885;28;20025;-45
2023/11/24 08:08:32;;;;;;;5.97;2.88;;;22.60;99.90;;;;;;5015068;28;20068;-44
2023/11/24 08:10:58;;;;;;;4.50;3.00;;;22.60;99.90;;;;;;5032789;28;20152;-44
2023/11/24 08:13:24;;;;;;;7.25;3.03;;;22.70;99.90;;;;;;5032734;28;20068;-45
2023/11/24 08:15:49;;;;;;;5.82;3.15;;;22.70;99.90;;;;;;5032604;28;20025;-46
2023/11/24 08:18:15;;;;;;;5.60;3.30;;;22.80;99.90;;;;;;5032685;28;20028;-46
2023/11/24 08:20:41;;;;;;;6.18;3.17;;;22.80;99.90;;;;;;5032712;28;20068;-46
2023/11/24 08:23:07;;;;;;;7.20;3.40;;;22.80;99.90;;;;;;5032525;28;20023;-47
2023/11/24 08:25:35;;;;;;;6.45;3.33;;;22.80;99.90;;;;;;5015029;28;20045;-46
2023/11/24 08:28:00;;;;;;;6.78;3.10;;;22.80;99.90;;;;;;5032389;28;20040;-46
2023/11/24 08:30:26;;;;;;;5.47;3.40;;;22.90;99.90;;;;;;5032520;28;20021;-45
2023/11/24 08:32:52;;;;;;;6.18;3.17;;;22.90;99.90;;;;;;5014694;28;20029;-45
2023/11/24 08:35:18;;;;;;;6.50;3.25;;;22.90;99.90;;;;;;5032424;28;20448;-46
2023/11/24 08:37:43;;;;;;;4.25;2.50;;;23.00;99.90;;;;;;5032471;28;20465;-45
2023/11/24 08:40:14;;;;;;;10.27;3.28;;;23.00;99.90;;;;;;5032482;28;20030;-44
2023/11/24 08:42:41;;;;;;;6.20;3.03;;;23.00;99.90;;;;;;5032611;28;20112;-45
2023/11/24 08:45:07;;;;;;;5.50;2.80;;;23.00;99.90;;;;;;5032291;28;20021;-44
2023/11/24 08:47:33;;;;;;;5.25;2.95;;;23.10;99.90;;;;;;5032118;28;20037;-45
2023/11/24 08:49:59;;;;;;;6.13;3.15;;;23.10;99.90;;;;;;5032202;28;20513;-45
2023/11/24 08:52:25;;;;;;;5.88;3.58;;;23.20;99.90;;;;;;5032145;28;20163;-45
2023/11/24 08:54:51;;;;;;;4.38;2.67;;;23.20;99.90;;;;;;5032147;28;20014;-46
2023/11/24 08:57:17;;;;;;;5.82;2.88;;;23.20;99.90;;;;;;5032072;28;20067;-45
2023/11/24 08:59:44;;;;;;;6.38;3.05;;;23.20;99.90;;;;;;5014583;28;20033;-45
2023/11/24 09:02:10;;;;;;;5.28;2.80;;;23.30;99.90;;;;;;5032075;28;20042;-45
2023/11/24 09:04:36;;;;;;;6.18;2.67;;;23.30;99.90;;;;;;5014209;28;20370;-46
2023/11/24 09:07:01;;;;;;;6.57;3.08;;;23.30;99.90;;;;;;5014372;28;20041;-44
2023/11/24 09:09:28;;;;;;;7.25;2.83;;;23.30;99.90;;;;;;5034640;28;20014;-45
2023/11/24 09:11:54;;;;;;;5.53;2.88;;;23.40;99.90;;;;;;5036192;28;20433;-45
2023/11/24 09:14:20;;;;;;;7.68;3.03;;;23.40;99.90;;;;;;5036001;28;20025;-45
2023/11/24 09:16:46;;;;;;;4.07;2.65;;;23.40;99.90;;;;;;5036004;28;20025;-45
2023/11/24 09:19:11;;;;;;;5.68;2.90;;;23.50;99.90;;;;;;5036455;28;20442;-45
2023/11/24 09:21:37;;;;;;;8.65;3.10;;;23.50;99.90;;;;;;5035990;28;20385;-45
2023/11/24 09:24:04;;;;;;;6.75;3.05;;;23.50;99.90;;;;;;5035805;28;20497;-45
2023/11/24 09:26:30;;;;;;;6.63;3.00;;;23.60;99.90;;;;;;5035754;28;20018;-46
2023/11/24 09:28:56;;;;;;;9.50;3.15;;;23.60;99.90;;;;;;5035790;28;20041;-45
2023/11/24 09:31:22;;;;;;;8.80;3.95;;;23.60;99.90;;;;;;5018163;28;20079;-46
2023/11/24 09:33:48;;;;;;;6.65;3.00;;;23.70;99.90;;;;;;5035764;28;20030;-45
2023/11/24 09:36:14;;;;;;;4.80;3.05;;;23.70;99.90;;;;;;5035972;28;20028;-45
2023/11/24 09:38:40;;;;;;;6.50;3.20;;;23.70;99.90;;;;;;5035607;28;20079;-45
2023/11/24 09:41:08;;;;;;;5.25;3.25;;;23.70;99.90;;;;;;5017809;28;20029;-46
2023/11/24 09:43:35;;;;;;;7.80;3.40;;;23.80;99.90;;;;;;5035521;28;20137;-45
2023/11/24 09:46:01;;;;;;;5.80;3.05;;;23.80;99.90;;;;;;5035473;28;20021;-45
2023/11/24 09:48:31;;;;;;;6.68;3.13;;;23.90;99.90;;;;;;5035482;28;20155;-46
2023/11/24 09:51:03;;;;;;;4.93;2.88;;;23.90;99.90;;;;;;5035341;28;20104;-46
2023/11/24 09:53:35;;;;;;;5.10;3.17;;;23.90;99.90;;;;;;5035296;28;20436;-45
2023/11/24 09:56:05;;;;;;;6.10;3.15;;;24.00;99.90;;;;;;5017354;28;20390;-45
2023/11/24 09:58:32;;;;;;;5.25;2.95;;;24.00;99.90;;;;;;5035213;28;20067;-45
2023/11/24 10:01:13;;;;;;;7.43;3.53;;;24.00;99.90;;;;;;5035179;28;20075;-46
2023/11/24 10:03:39;;;;;;;6.97;3.10;;;24.10;99.90;;;;;;5035102;28;20025;-45
2023/11/24 10:06:11;;;;;;;4.18;2.50;;;24.10;99.90;;;;;;5035112;28;20108;-46
2023/11/24 10:08:37;;;;;;;3.53;2.50;;;24.20;99.90;;;;;;5034982;28;20040;-46
2023/11/24 10:11:14;;;;;;;3.72;2.53;;;24.20;99.90;;;;;;5035029;28;20029;-46
2023/11/24 10:13:44;;;;;;;7.90;3.00;;;24.30;99.90;;;;;;5035004;28;20095;-46
2023/11/24 10:16:11;;;;;;;6.35;3.38;;;24.30;99.90;;;;;;5034875;28;20025;-46
2023/11/24 10:18:38;;;;;;;6.65;2.90;;;24.40;99.90;;;;;;5034853;28;20025;-46
2023/11/24 10:21:06;;;;;;;4.10;2.83;;;24.50;99.90;;;;;;5034501;28;20028;-45
2023/11/24 10:23:32;;;;;;;6.32;3.42;;;24.50;99.90;;;;;;5034721;28;20025;-45
2023/11/24 10:25:59;;;;;;;5.95;3.00;;;24.60;99.90;;;;;;5034624;28;20025;-45
2023/11/24 10:28:25;;;;;;;5.23;3.10;;;24.60;99.90;;;;;;5017141;28;20037;-45
2023/11/24 10:30:54;;;;;;;8.00;2.70;;;24.60;99.90;;;;;;5016889;28;20489;-46
2023/11/24 10:33:21;;;;;;;7.18;3.40;;;24.70;99.90;;;;;;5034649;28;20345;-46
2023/11/24 10:35:47;;;;;;;4.30;2.57;;;24.70;99.90;;;;;;5034844;28;20096;-46
2023/11/24 10:38:20;;;;;;;7.05;2.72;;;24.80;99.90;;;;;;5016387;28;20482;-46
2023/11/24 10:40:50;;;;;;;5.85;2.63;;;24.80;99.90;;;;;;5034191;28;20474;-46
2023/11/24 10:43:19;;;;;;;5.43;2.70;;;24.90;99.90;;;;;;5034286;28;20474;-46
2023/11/24 10:45:50;;;;;;;8.07;3.45;;;24.90;99.90;;;;;;5034361;28;20072;-46
2023/11/24 10:48:21;;;;;;;7.30;2.63;;;25.00;99.90;;;;;;5034162;28;20034;-46
2023/11/24 10:51:01;;;;;;;5.43;2.83;;;25.00;99.90;;;;;;5034224;28;20398;-46
2023/11/24 10:53:44;;;;;;;6.32;2.95;;;25.00;99.90;;;;;;5016491;28;20103;-46
2023/11/24 10:56:13;;;;;;;7.93;3.08;;;25.00;99.90;;;;;;5034054;28;20056;-46
2023/11/24 10:58:40;;;;;;;6.10;2.97;;;25.10;99.90;;;;;;5034029;28;20327;-46
2023/11/24 11:01:06;;;;;;;4.28;2.47;;;25.10;99.90;;;;;;5034362;28;20048;-46
2023/11/24 11:03:34;;;;;;;5.18;3.25;;;25.20;99.90;;;;;;5034180;28;20109;-47
2023/11/24 11:06:17;;;;;;;4.90;2.60;;;25.20;99.90;;;;;;5033901;28;20028;-46
2023/11/24 11:08:56;;;;;;;6.68;2.83;;;25.20;99.90;;;;;;5033850;28;20037;-46
2023/11/24 11:11:45;;;;;;;8.38;4.22;;;25.30;99.90;;;;;;5000975;28;20100;-46
2023/11/24 11:14:17;;;;;;;8.63;3.33;;;25.30;99.90;;;;;;5033760;28;20504;-46
2023/11/24 11:16:45;;;;;;;8.95;3.60;;;25.40;99.90;;;;;;5033731;28;20029;-46
2023/11/24 11:19:33;;;;;;;5.75;3.15;;;25.40;99.90;;;;;;5015914;28;20017;-46
2023/11/24 11:22:00;;;;;;;9.05;3.20;;;25.40;99.90;;;;;;5033652;28;20497;-45
2023/11/24 11:24:29;;;;;;;7.68;3.58;;;25.40;99.90;;;;;;5033788;28;20076;-45
2023/11/24 11:26:57;;;;;;;7.05;2.05;;;25.40;99.90;;;;;;5015671;28;20029;-45
2023/11/24 11:29:26;;;;;;;7.18;1.50;;;25.40;99.90;;;;;;5033518;28;20470;-46
2023/11/24 11:31:55;;;;;;;7.72;1.77;;;25.40;99.90;;;;;;5013652;28;20112;-46
2023/11/24 11:34:30;;;;;;;6.15;2.05;;;25.30;99.90;;;;;;5032987;28;20079;-46
2023/11/24 11:37:11;;;;;;;4.72;2.28;;;25.30;99.90;;;;;;5033063;28;20478;-46
2023/11/24 11:39:38;;;;;;;6.03;2.22;;;25.30;99.90;;;;;;5032319;28;20052;-46
2023/11/24 11:42:05;;;;;;;5.95;2.67;;;25.30;99.90;;;;;;5015311;28;20071;-47
2023/11/24 11:44:34;;;;;;;11.40;3.57;;;25.30;99.90;;;;;;5032602;28;20112;-46
2023/11/24 11:47:10;;;;;;;12.65;3.47;;;25.40;99.90;;;;;;5032469;28;20671;-45
2023/11/24 11:49:39;;;;;;;7.60;3.40;;;25.40;99.90;;;;;;5032510;28;20071;-46
2023/11/24 11:52:11;;;;;;;9.68;3.33;;;25.40;99.90;;;;;;5032397;28;20421;-46
2023/11/24 11:54:39;;;;;;;6.25;2.90;;;25.40;99.90;;;;;;5029476;28;20044;-47
2023/11/24 11:57:05;;;;;;;7.07;1.80;;;25.40;99.90;;;;;;5010965;28;20418;-46
2023/11/24 11:59:31;;;;;;;4.78;1.67;;;25.50;99.90;;;;;;5010963;28;20045;-46
2023/11/24 12:01:58;;;;;;;7.63;2.13;;;25.40;99.90;;;;;;5016528;28;20041;-44
2023/11/24 12:04:28;;;;;;;;;;;25.40;99.90;;;;;;5031094;28;20021;-45
2023/11/24 12:06:54;;;;;;;7.22;1.65;;;25.30;99.90;;;;;;5031217;28;20284;-45
2023/11/24 12:09:21;;;;;;;8.52;2.50;;;25.20;99.90;;;;;;5031426;28;20112;-43
2023/11/24 12:11:46;;;;;;;5.93;2.65;;;25.20;99.90;;;;;;5014906;28;20018;-44
2023/11/24 12:14:15;;;;;;;14.32;3.60;;;25.20;99.90;;;;;;5032623;28;20034;-45
2023/11/24 12:16:41;;;;;;;9.95;4.43;;;25.10;99.90;;;;;;5032894;28;20060;-45
2023/11/24 12:19:11;;;;;;;10.38;4.32;;;25.00;99.90;;;;;;5015058;28;20029;-45
2023/11/24 12:21:38;;;;;;;9.63;3.47;;;25.00;99.90;;;;;;5032297;28;20014;-44
2023/11/24 12:24:05;;;;;;;10.15;3.80;;;25.00;99.90;;;;;;5032475;28;20044;-45
2023/11/24 12:26:33;;;;;;;6.80;3.30;;;24.90;99.90;;;;;;5031668;28;20560;-46
2023/11/24 12:28:59;;;;;;;8.65;1.73;;;24.80;99.90;;;;;;5031992;28;20029;-47
2023/11/24 12:31:28;;;;;;;11.60;1.83;;;24.80;99.90;;;;;;5031022;28;21746;-46
2023/11/24 12:33:55;;;;;;;9.57;1.25;;;24.70;99.90;;;;;;5014655;28;20029;-46
2023/11/24 12:36:23;;;;;;;12.20;3.53;;;24.70;99.90;;;;;;5032357;28;20024;-47
2023/11/24 12:38:50;;;;;;;10.60;5.10;;;24.70;99.90;;;;;;5032293;28;20087;-46
2023/11/24 12:41:17;;;;;;;9.25;3.50;;;24.70;99.90;;;;;;5032748;28;20383;-47
2023/11/24 12:43:48;;;;;;;6.88;2.15;;;24.70;99.90;;;;;;5032307;28;20109;-48
2023/11/24 12:46:20;;;;;;;9.10;2.10;;;24.60;99.90;;;;;;5032195;28;20032;-47
2023/11/24 12:48:47;;;;;;;8.30;2.15;;;24.60;99.90;;;;;;5031735;28;20041;-48